Time;durP1;ratioP1;P1;durP2;ratioP2;P2;SDS_P1;SDS_P2;PMS_P1;PMS_P2;Temp;Humidity;BMP_temperature;BMP_pressure;BME280_temperature;BME280_humidity;BME280_pressure;Samples;Min_cycle;Max_cycle;Signal;HPM_P1;HPM_P2
2021/05/05 00:01:24;;;;;;;21.08;16.65;;;6.40;99.90;;;;;;4963428;28;20094;-66
2021/05/05 00:03:50;;;;;;;19.35;14.95;;;6.40;99.90;;;;;;4963349;28;20047;-65
2021/05/05 00:06:17;;;;;;;18.10;14.45;;;6.30;99.90;;;;;;4962366;28;20091;-65
2021/05/05 00:08:44;;;;;;;16.52;14.82;;;6.40;99.90;;;;;;4964936;28;20042;-65
2021/05/05 00:11:11;;;;;;;17.63;14.93;;;6.30;99.90;;;;;;4961877;28;20827;-64
2021/05/05 00:13:38;;;;;;;14.68;13.18;;;6.30;99.90;;;;;;4962782;28;20065;-65
2021/05/05 00:16:06;;;;;;;15.80;14.10;;;6.40;99.90;;;;;;4962432;28;20054;-64
2021/05/05 00:18:32;;;;;;;14.98;13.38;;;6.40;99.90;;;;;;4963760;28;20078;-64
2021/05/05 00:21:00;;;;;;;11.98;10.77;;;6.40;99.90;;;;;;4962321;28;20070;-64
2021/05/05 00:23:26;;;;;;;12.65;10.98;;;6.40;99.90;;;;;;4962220;28;20109;-64
2021/05/05 00:25:52;;;;;;;12.77;11.27;;;6.40;99.90;;;;;;4962873;28;20105;-64
2021/05/05 00:28:19;;;;;;;10.60;9.50;;;6.40;99.90;;;;;;4964688;28;20046;-65
2021/05/05 00:30:46;;;;;;;12.90;10.35;;;6.40;99.90;;;;;;4962722;28;20113;-66
2021/05/05 00:33:12;;;;;;;11.77;9.48;;;6.40;99.90;;;;;;4963735;28;20054;-64
2021/05/05 00:35:39;;;;;;;10.90;9.43;;;6.30;99.90;;;;;;4961943;28;20173;-64
2021/05/05 00:38:05;;;;;;;11.10;10.00;;;6.30;99.90;;;;;;4964089;28;20055;-65
2021/05/05 00:40:32;;;;;;;10.65;9.32;;;6.40;99.90;;;;;;4962159;28;20047;-65
2021/05/05 00:42:58;;;;;;;10.10;9.20;;;6.40;99.90;;;;;;4963974;28;20489;-65
2021/05/05 00:45:25;;;;;;;9.45;8.25;;;6.40;99.90;;;;;;4960383;28;20046;-65
2021/05/05 00:47:52;;;;;;;11.07;8.43;;;6.40;99.90;;;;;;4963189;28;20046;-65
2021/05/05 00:50:18;;;;;;;10.02;9.02;;;6.40;99.90;;;;;;4962231;28;20047;-65
2021/05/05 00:52:46;;;;;;;8.68;7.75;;;6.40;99.90;;;;;;4964264;28;20109;-66
2021/05/05 00:55:14;;;;;;;11.40;8.85;;;6.40;99.90;;;;;;4961145;28;20043;-64
2021/05/05 00:57:44;;;;;;;8.82;7.13;;;6.40;99.90;;;;;;4962126;28;20076;-65
2021/05/05 01:00:13;;;;;;;8.77;7.47;;;6.40;99.90;;;;;;4962353;28;20521;-64
2021/05/05 01:02:40;;;;;;;7.15;6.40;;;6.40;99.90;;;;;;4965739;28;20081;-65
2021/05/05 01:05:08;;;;;;;9.30;8.07;;;6.40;99.90;;;;;;4962288;28;20059;-64
2021/05/05 01:07:35;;;;;;;6.93;6.13;;;6.40;99.90;;;;;;4961278;28;20513;-65
2021/05/05 01:10:08;;;;;;;7.13;6.30;;;6.30;99.90;;;;;;4940773;28;20050;-64
2021/05/05 01:12:35;;;;;;;7.95;7.00;;;6.40;99.90;;;;;;4962500;28;20449;-64
2021/05/05 01:15:02;;;;;;;7.05;6.35;;;6.30;99.90;;;;;;4944602;28;20076;-65
2021/05/05 01:17:29;;;;;;;6.75;6.15;;;6.40;99.90;;;;;;4957976;28;20073;-67
2021/05/05 01:19:56;;;;;;;6.28;5.28;;;6.40;99.90;;;;;;4962990;28;20513;-65
2021/05/05 01:22:22;;;;;;;7.70;6.88;;;6.30;99.90;;;;;;4945447;28;20061;-66
2021/05/05 01:24:49;;;;;;;6.00;5.40;;;6.30;99.90;;;;;;4958186;28;20545;-65
2021/05/05 01:27:16;;;;;;;6.75;5.65;;;6.30;99.90;;;;;;4962224;28;20465;-65
2021/05/05 01:29:47;;;;;;;5.75;5.10;;;6.30;99.90;;;;;;4940913;28;20066;-67
2021/05/05 01:32:14;;;;;;;6.78;5.43;;;6.40;99.90;;;;;;4962911;28;20054;-65
2021/05/05 01:34:43;;;;;;;7.57;6.15;;;6.30;99.90;;;;;;4944327;28;20381;-64
2021/05/05 01:37:10;;;;;;;5.72;4.95;;;6.40;99.90;;;;;;4944889;28;20145;-67
2021/05/05 01:39:39;;;;;;;9.80;6.68;;;6.40;99.90;;;;;;4943261;28;20141;-65
2021/05/05 01:42:06;;;;;;;7.22;6.53;;;6.40;99.90;;;;;;4963264;28;20054;-66
2021/05/05 01:44:38;;;;;;;7.20;6.50;;;6.40;99.90;;;;;;4940062;28;20589;-65
2021/05/05 01:47:11;;;;;;;9.23;7.90;;;6.40;99.90;;;;;;4959425;28;20047;-67
2021/05/05 01:49:47;;;;;;;8.57;7.38;;;6.50;99.90;;;;;;4941180;28;20200;-68
2021/05/05 01:52:17;;;;;;;8.57;6.47;;;6.50;99.90;;;;;;4945649;28;20059;-65
2021/05/05 01:54:45;;;;;;;12.20;8.48;;;6.50;99.90;;;;;;4964396;28;20484;-66
2021/05/05 01:57:28;;;;;;;9.60;7.13;;;6.50;99.90;;;;;;4962384;28;20061;-68
2021/05/05 01:59:57;;;;;;;9.13;7.00;;;6.50;99.90;;;;;;4957864;28;20564;-65
2021/05/05 02:02:28;;;;;;;9.55;7.47;;;6.50;99.90;;;;;;4961947;28;20650;-64
2021/05/05 02:04:55;;;;;;;8.05;7.13;;;6.50;99.90;;;;;;4961745;28;20059;-65
2021/05/05 02:07:35;;;;;;;8.60;7.40;;;6.50;99.90;;;;;;4945353;28;20095;-67
2021/05/05 02:10:03;;;;;;;9.35;6.68;;;6.50;99.90;;;;;;4962181;28;20743;-65
2021/05/05 02:12:30;;;;;;;9.63;8.00;;;6.50;99.90;;;;;;4962925;28;20125;-64
2021/05/05 02:14:57;;;;;;;9.20;7.32;;;6.50;99.90;;;;;;4944413;28;20481;-65
2021/05/05 02:17:24;;;;;;;12.73;7.60;;;6.50;99.90;;;;;;4963087;28;20097;-66
2021/05/05 02:19:51;;;;;;;7.68;6.75;;;6.60;99.90;;;;;;4941426;28;20050;-68
2021/05/05 02:22:17;;;;;;;8.10;6.82;;;6.50;99.90;;;;;;4973727;28;20158;-68
2021/05/05 02:24:44;;;;;;;11.07;7.70;;;6.50;99.90;;;;;;4974777;28;20533;-64
2021/05/05 02:27:11;;;;;;;8.18;5.95;;;6.60;99.90;;;;;;4945944;28;20486;-65
2021/05/05 02:29:38;;;;;;;9.40;6.60;;;6.50;99.90;;;;;;4958001;28;20110;-68
2021/05/05 02:32:44;;;;;;;9.02;6.00;;;6.50;99.90;;;;;;4947332;28;20469;-64
2021/05/05 02:35:11;;;;;;;8.17;6.03;;;6.60;99.90;;;;;;4942245;28;20078;-67
2021/05/05 02:37:38;;;;;;;10.15;6.63;;;6.50;99.90;;;;;;4961991;28;20056;-65
2021/05/05 02:40:06;;;;;;;8.98;5.82;;;6.50;99.90;;;;;;4943599;28;20051;-64
2021/05/05 02:42:33;;;;;;;8.15;5.72;;;6.50;99.90;;;;;;4947639;28;20042;-65
2021/05/05 02:45:00;;;;;;;8.63;6.15;;;6.50;99.90;;;;;;4947524;28;20054;-67
2021/05/05 02:47:27;;;;;;;13.63;6.47;;;6.50;99.90;;;;;;4965138;28;20373;-64
2021/05/05 02:49:54;;;;;;;11.40;5.18;;;6.50;99.90;;;;;;4963278;28;20093;-65
2021/05/05 02:52:20;;;;;;;11.77;5.95;;;6.50;99.90;;;;;;4978725;28;20054;-66
2021/05/05 02:54:47;;;;;;;5.70;4.63;;;6.50;99.90;;;;;;4965312;28;20666;-64
2021/05/05 02:57:14;;;;;;;11.98;6.55;;;6.50;99.90;;;;;;4965571;28;20658;-64
2021/05/05 02:59:41;;;;;;;9.73;5.75;;;6.50;99.90;;;;;;4963713;28;20152;-64
2021/05/05 03:02:08;;;;;;;9.15;5.13;;;6.50;99.90;;;;;;4966766;28;20081;-68
2021/05/05 03:04:35;;;;;;;7.40;5.32;;;6.50;99.90;;;;;;4965598;28;20062;-65
2021/05/05 03:07:01;;;;;;;8.68;5.78;;;6.50;99.90;;;;;;4949697;28;20182;-67
2021/05/05 03:09:29;;;;;;;9.35;5.07;;;6.40;99.90;;;;;;4944893;28;20061;-64
2021/05/05 03:11:57;;;;;;;9.30;4.55;;;6.40;99.90;;;;;;4965788;28;20047;-65
2021/05/05 03:14:28;;;;;;;7.45;6.03;;;6.40;99.90;;;;;;4963461;28;20098;-64
2021/05/05 03:16:57;;;;;;;10.38;7.07;;;6.40;99.90;;;;;;4965987;28;20055;-65
2021/05/05 03:19:24;;;;;;;17.92;5.80;;;6.40;99.90;;;;;;4963863;28;20055;-64
2021/05/05 03:21:50;;;;;;;6.10;5.15;;;6.50;99.90;;;;;;4966665;28;20050;-65
2021/05/05 03:24:17;;;;;;;8.18;6.72;;;6.40;99.90;;;;;;4965517;28;20038;-66
2021/05/05 03:26:44;;;;;;;8.50;5.50;;;6.40;99.90;;;;;;4965950;28;20056;-66
2021/05/05 03:29:10;;;;;;;11.43;5.25;;;6.40;99.90;;;;;;4962684;28;20400;-65
2021/05/05 03:31:37;;;;;;;8.30;5.20;;;6.40;99.90;;;;;;4964009;28;20039;-66
2021/05/05 03:34:05;;;;;;;6.68;4.50;;;6.40;99.90;;;;;;4962720;28;20042;-64
2021/05/05 03:36:31;;;;;;;8.73;4.82;;;6.40;99.90;;;;;;4964561;28;20089;-64
2021/05/05 03:39:00;;;;;;;9.25;4.80;;;6.40;99.90;;;;;;4964486;28;20453;-66
2021/05/05 03:41:29;;;;;;;8.98;5.35;;;6.40;99.90;;;;;;4964167;28;20058;-65
2021/05/05 03:43:55;;;;;;;11.15;5.10;;;6.40;99.90;;;;;;4963616;28;20054;-64
2021/05/05 03:46:22;;;;;;;12.05;5.93;;;6.40;99.90;;;;;;4964742;28;20069;-67
2021/05/05 03:48:49;;;;;;;7.78;5.78;;;6.40;99.90;;;;;;4961820;28;20134;-64
2021/05/05 03:51:15;;;;;;;8.40;6.40;;;6.40;99.90;;;;;;4969044;28;20054;-66
2021/05/05 03:53:42;;;;;;;7.65;5.32;;;6.40;99.90;;;;;;4961584;28;20046;-65
2021/05/05 03:56:08;;;;;;;6.28;5.15;;;6.40;99.90;;;;;;4963355;28;20046;-65
2021/05/05 03:58:35;;;;;;;9.05;5.38;;;6.40;99.90;;;;;;4963235;28;20058;-64
2021/05/05 04:01:01;;;;;;;9.80;5.05;;;6.40;99.90;;;;;;4962163;28;20070;-65
2021/05/05 04:03:28;;;;;;;8.00;4.88;;;6.50;99.90;;;;;;4960448;28;20061;-66
2021/05/05 04:05:54;;;;;;;13.65;5.20;;;6.50;99.90;;;;;;4963132;28;20559;-65
2021/05/05 04:08:21;;;;;;;15.70;6.57;;;6.50;99.90;;;;;;4961834;28;20046;-64
2021/05/05 04:10:47;;;;;;;6.10;4.00;;;6.50;99.90;;;;;;4967953;28;20055;-65
2021/05/05 04:13:13;;;;;;;5.75;5.20;;;6.50;99.90;;;;;;4962173;28;20050;-64
2021/05/05 04:16:00;;;;;;;6.80;4.70;;;6.50;99.90;;;;;;4962369;28;20043;-64
2021/05/05 04:18:44;;;;;;;9.27;3.90;;;6.50;99.90;;;;;;4973756;28;20051;-65
2021/05/05 04:21:29;;;;;;;6.95;3.80;;;6.50;99.90;;;;;;4962722;28;20049;-65
2021/05/05 04:24:13;;;;;;;7.88;4.25;;;6.50;99.90;;;;;;4964330;28;20082;-67
2021/05/05 04:26:40;;;;;;;10.38;4.00;;;6.60;99.90;;;;;;4969116;28;21469;-64
2021/05/05 04:29:06;;;;;;;7.07;3.97;;;6.50;99.90;;;;;;4963385;28;20047;-65
2021/05/05 04:31:33;;;;;;;7.05;3.65;;;6.50;99.90;;;;;;4964698;28;20042;-67
2021/05/05 04:33:59;;;;;;;7.18;4.75;;;6.50;99.90;;;;;;4961868;28;20101;-65
2021/05/05 04:36:26;;;;;;;4.53;3.28;;;6.50;99.90;;;;;;4964005;28;20051;-66
2021/05/05 04:38:52;;;;;;;7.07;3.72;;;6.60;99.90;;;;;;4962196;28;20057;-65
2021/05/05 04:41:19;;;;;;;10.90;4.13;;;6.60;99.90;;;;;;4964151;28;20051;-65
2021/05/05 04:43:45;;;;;;;3.50;3.20;;;6.60;99.90;;;;;;4960838;28;20046;-64
2021/05/05 04:46:12;;;;;;;6.00;3.13;;;6.60;99.90;;;;;;4959633;28;20039;-64
2021/05/05 04:48:39;;;;;;;5.85;2.58;;;6.60;99.90;;;;;;4959163;28;20059;-64
2021/05/05 04:51:06;;;;;;;3.03;2.38;;;6.50;99.90;;;;;;4964729;28;20768;-66
2021/05/05 04:53:32;;;;;;;5.05;2.70;;;6.60;99.90;;;;;;4942378;28;20082;-67
2021/05/05 04:55:59;;;;;;;7.93;3.90;;;6.60;99.90;;;;;;4962614;28;20063;-64
2021/05/05 04:58:25;;;;;;;4.95;2.55;;;6.60;99.90;;;;;;4960507;28;20711;-66
2021/05/05 05:00:52;;;;;;;3.25;2.50;;;6.60;99.90;;;;;;4961939;28;20051;-65
2021/05/05 05:03:18;;;;;;;4.90;2.50;;;6.60;99.90;;;;;;4961046;28;20058;-64
2021/05/05 05:05:45;;;;;;;6.65;2.72;;;6.70;99.90;;;;;;4958874;28;20058;-64
2021/05/05 05:08:11;;;;;;;2.47;2.25;;;6.70;99.90;;;;;;4961494;28;20762;-67
2021/05/05 05:10:38;;;;;;;3.67;2.60;;;6.70;99.90;;;;;;4961573;28;20051;-66
2021/05/05 05:13:05;;;;;;;3.58;2.80;;;6.70;99.90;;;;;;4964133;28;20465;-64
2021/05/05 05:15:31;;;;;;;4.18;2.53;;;6.60;99.90;;;;;;4959054;28;20704;-64
2021/05/05 05:17:58;;;;;;;3.13;2.63;;;6.60;99.90;;;;;;4962133;28;20073;-64
2021/05/05 05:20:24;;;;;;;2.17;1.80;;;6.70;99.90;;;;;;4960649;28;20050;-64
2021/05/05 05:22:54;;;;;;;3.90;2.00;;;6.70;99.90;;;;;;4963118;28;20102;-66
2021/05/05 05:25:25;;;;;;;1.48;1.38;;;6.70;99.90;;;;;;4957176;28;20129;-66
2021/05/05 05:27:52;;;;;;;3.92;2.70;;;6.70;99.90;;;;;;4962467;28;20055;-64
2021/05/05 05:30:20;;;;;;;2.67;1.48;;;6.80;99.90;;;;;;4960634;28;20050;-65
2021/05/05 05:32:47;;;;;;;2.95;2.65;;;6.80;99.90;;;;;;4962169;28;20212;-64
2021/05/05 05:35:14;;;;;;;1.58;1.48;;;6.80;99.90;;;;;;4960107;28;20062;-66
2021/05/05 05:37:41;;;;;;;2.65;1.63;;;6.80;99.90;;;;;;4961722;28;20054;-64
2021/05/05 05:40:09;;;;;;;1.92;1.42;;;6.90;99.90;;;;;;4959767;28;20087;-66
2021/05/05 05:42:36;;;;;;;2.78;1.70;;;6.90;99.90;;;;;;4961657;28;20051;-67
2021/05/05 05:45:04;;;;;;;2.60;1.90;;;6.90;99.90;;;;;;4960617;28;20042;-66
2021/05/05 05:47:31;;;;;;;2.20;1.95;;;6.90;99.90;;;;;;4956430;28;20062;-65
2021/05/05 05:49:57;;;;;;;2.15;1.95;;;7.00;99.90;;;;;;4962127;28;20133;-65
2021/05/05 05:52:23;;;;;;;4.93;2.33;;;7.10;99.90;;;;;;4960521;28;20054;-64
2021/05/05 05:54:50;;;;;;;2.80;1.80;;;7.20;99.90;;;;;;4964197;28;20077;-64
2021/05/05 05:57:17;;;;;;;5.00;2.00;;;7.20;99.90;;;;;;4959725;28;20051;-66
2021/05/05 05:59:44;;;;;;;2.38;2.17;;;7.30;99.90;;;;;;4960522;28;20047;-65
2021/05/05 06:02:11;;;;;;;4.53;2.70;;;7.30;99.90;;;;;;4959658;28;20055;-67
2021/05/05 06:04:38;;;;;;;1.95;1.85;;;7.40;99.90;;;;;;4960705;28;20059;-65
2021/05/05 06:07:05;;;;;;;3.25;2.53;;;7.40;99.90;;;;;;4962589;28;20070;-68
2021/05/05 06:09:32;;;;;;;3.85;2.67;;;7.50;99.90;;;;;;4958705;28;20058;-66
2021/05/05 06:11:58;;;;;;;4.63;2.60;;;7.40;99.90;;;;;;4948412;28;20054;-66
2021/05/05 06:14:25;;;;;;;4.30;2.47;;;7.40;99.90;;;;;;966019;28;10002167;-66
2021/05/05 06:16:52;;;;;;;6.97;3.80;;;7.30;99.90;;;;;;4946443;28;20054;-65
2021/05/05 06:19:18;;;;;;;3.45;2.97;;;7.30;99.90;;;;;;4966435;28;20054;-67
2021/05/05 06:21:45;;;;;;;3.85;3.55;;;7.30;99.90;;;;;;4964971;28;20109;-65
2021/05/05 06:24:11;;;;;;;6.18;3.90;;;7.20;99.90;;;;;;4966658;28;20628;-64
2021/05/05 06:26:38;;;;;;;7.40;4.53;;;7.20;99.90;;;;;;4966856;28;20130;-64
2021/05/05 06:29:04;;;;;;;8.85;4.25;;;7.20;99.90;;;;;;4968439;28;20054;-65
2021/05/05 06:31:31;;;;;;;5.00;4.60;;;7.20;99.90;;;;;;4961640;28;20125;-65
2021/05/05 06:33:58;;;;;;;10.45;4.53;;;7.20;99.90;;;;;;4965826;28;20054;-66
2021/05/05 06:36:24;;;;;;;7.75;4.18;;;7.20;99.90;;;;;;4963552;28;20409;-67
2021/05/05 06:38:51;;;;;;;11.40;4.82;;;7.30;99.90;;;;;;4968459;28;20050;-65
2021/05/05 06:41:17;;;;;;;7.00;4.25;;;7.30;99.90;;;;;;4967218;28;20114;-64
2021/05/05 06:43:44;;;;;;;5.28;3.88;;;7.30;99.90;;;;;;4962759;28;20423;-65
2021/05/05 06:46:11;;;;;;;11.48;5.28;;;7.30;99.90;;;;;;4971184;28;20154;-68
2021/05/05 06:48:37;;;;;;;8.88;4.35;;;7.40;99.90;;;;;;4963990;28;20636;-65
2021/05/05 06:51:05;;;;;;;5.10;3.65;;;7.40;99.90;;;;;;4967751;28;20051;-68
2021/05/05 06:53:31;;;;;;;5.45;3.90;;;7.40;99.90;;;;;;4964953;28;20058;-66
2021/05/05 06:55:58;;;;;;;6.97;3.55;;;7.50;99.90;;;;;;4969658;28;20062;-67
2021/05/05 06:58:25;;;;;;;6.47;3.28;;;7.50;99.90;;;;;;4966830;28;20062;-67
2021/05/05 07:00:53;;;;;;;6.13;3.88;;;7.50;99.90;;;;;;4965250;28;20055;-67
2021/05/05 07:03:19;;;;;;;3.67;2.95;;;7.40;99.90;;;;;;4964059;28;20187;-65
2021/05/05 07:05:45;;;;;;;5.30;2.50;;;7.50;99.90;;;;;;4948349;28;20121;-66
2021/05/05 07:08:12;;;;;;;6.50;3.30;;;7.40;99.90;;;;;;4966443;28;20042;-66
2021/05/05 07:10:39;;;;;;;7.03;3.30;;;7.40;99.90;;;;;;4968780;28;20058;-64
2021/05/05 07:13:05;;;;;;;7.22;3.15;;;7.50;99.90;;;;;;4965744;28;20117;-66
2021/05/05 07:15:32;;;;;;;5.07;2.53;;;7.40;99.90;;;;;;4963648;28;20109;-65
2021/05/05 07:17:58;;;;;;;6.65;2.95;;;7.40;99.90;;;;;;4965742;28;20141;-64
2021/05/05 07:20:25;;;;;;;4.65;3.67;;;7.40;99.90;;;;;;4968712;28;20406;-67
2021/05/05 07:22:56;;;;;;;5.05;3.00;;;7.30;99.90;;;;;;4970485;28;20046;-67
2021/05/05 07:25:22;;;;;;;2.97;2.70;;;7.20;99.90;;;;;;4963666;28;20047;-65
2021/05/05 07:27:49;;;;;;;6.18;3.05;;;7.20;99.90;;;;;;4967644;28;20117;-65
2021/05/05 07:30:16;;;;;;;4.10;3.00;;;7.20;99.90;;;;;;4968055;28;20042;-67
2021/05/05 07:32:42;;;;;;;6.00;2.97;;;7.20;99.90;;;;;;4966462;28;20180;-64
2021/05/05 07:35:11;;;;;;;6.80;3.13;;;7.20;99.90;;;;;;4968129;28;20058;-65
2021/05/05 07:43:44;;;;;;;4.25;2.92;;;7.10;99.90;;;;;;4928385;28;20128;-65
2021/05/05 07:50:58;;;;;;;12.95;4.22;;;7.10;99.90;;;;;;4964544;28;20596;-65
2021/05/05 07:53:24;;;;;;;7.80;3.63;;;7.20;99.90;;;;;;4966228;28;20043;-65
2021/05/05 07:55:54;;;;;;;5.65;3.40;;;7.10;99.90;;;;;;4963265;28;20485;-64
2021/05/05 07:58:21;;;;;;;10.93;3.10;;;7.10;99.90;;;;;;4965434;28;20045;-65
2021/05/05 08:00:47;;;;;;;6.50;2.92;;;7.10;99.90;;;;;;4964756;28;20051;-67
2021/05/05 08:03:14;;;;;;;6.53;3.78;;;7.10;99.90;;;;;;4964585;28;20054;-65
2021/05/05 08:05:41;;;;;;;8.45;3.08;;;7.10;99.90;;;;;;4959508;28;20126;-67
2021/05/05 08:08:07;;;;;;;5.63;3.35;;;7.10;99.90;;;;;;4963270;28;20043;-65
2021/05/05 08:10:34;;;;;;;5.90;3.88;;;7.20;99.90;;;;;;4964310;28;20078;-64
2021/05/05 08:13:00;;;;;;;7.03;4.20;;;7.30;99.90;;;;;;4961234;28;20375;-65
2021/05/05 08:15:27;;;;;;;11.38;3.97;;;7.20;99.90;;;;;;4961392;28;20904;-66
2021/05/05 08:17:54;;;;;;;6.68;3.55;;;7.20;99.90;;;;;;4963592;28;20470;-65
2021/05/05 08:20:20;;;;;;;8.88;4.22;;;7.20;99.90;;;;;;4962929;28;20477;-66
2021/05/05 08:22:47;;;;;;;8.10;4.53;;;7.20;99.90;;;;;;4962130;28;20141;-64
2021/05/05 08:25:13;;;;;;;7.95;4.78;;;7.30;99.90;;;;;;4966356;28;20105;-65
2021/05/05 08:27:40;;;;;;;4.55;3.70;;;7.30;99.90;;;;;;4959042;28;20500;-65
2021/05/05 08:30:07;;;;;;;9.98;4.03;;;7.30;99.90;;;;;;4943329;28;20058;-68
2021/05/05 08:32:33;;;;;;;6.45;4.15;;;7.40;99.90;;;;;;4957818;28;20085;-66
2021/05/05 08:35:00;;;;;;;8.77;4.47;;;7.40;99.90;;;;;;4963640;28;20111;-65
2021/05/05 08:37:26;;;;;;;9.68;4.75;;;7.40;99.90;;;;;;4959295;28;20090;-65
2021/05/05 08:39:53;;;;;;;6.03;4.60;;;7.50;99.90;;;;;;4964143;28;20069;-67
2021/05/05 08:42:19;;;;;;;10.38;4.90;;;7.50;99.90;;;;;;4957121;28;20047;-66
2021/05/05 08:44:48;;;;;;;7.95;5.68;;;7.60;99.90;;;;;;4961185;28;20057;-66
2021/05/05 08:47:16;;;;;;;7.47;4.45;;;7.60;99.90;;;;;;4956005;28;20145;-66
2021/05/05 08:49:45;;;;;;;8.57;4.17;;;7.70;99.90;;;;;;4960344;28;20141;-66
2021/05/05 08:52:12;;;;;;;8.68;4.50;;;7.80;99.90;;;;;;4961427;28;20292;-65
2021/05/05 08:54:39;;;;;;;8.70;3.78;;;7.90;99.90;;;;;;4961611;28;20069;-67
2021/05/05 08:57:05;;;;;;;8.23;4.28;;;8.00;99.90;;;;;;4963306;28;20534;-65
2021/05/05 08:59:32;;;;;;;7.20;5.32;;;8.10;99.90;;;;;;4959679;28;20115;-65
2021/05/05 09:02:00;;;;;;;7.38;4.32;;;8.20;99.90;;;;;;4962631;28;21096;-65
2021/05/05 09:04:27;;;;;;;6.57;4.93;;;8.20;99.90;;;;;;4959746;28;20073;-68
2021/05/05 09:06:56;;;;;;;10.80;5.00;;;8.30;99.90;;;;;;4963794;28;20600;-65
2021/05/05 09:09:31;;;;;;;9.52;4.53;;;8.40;99.90;;;;;;4961045;28;20047;-65
2021/05/05 09:11:58;;;;;;;6.68;4.38;;;8.30;99.90;;;;;;4963577;28;20144;-65
2021/05/05 09:14:27;;;;;;;6.63;4.07;;;8.20;99.90;;;;;;4968719;28;20054;-65
2021/05/05 09:16:54;;;;;;;10.07;4.82;;;8.10;99.90;;;;;;4963963;28;20061;-65
2021/05/05 09:19:21;;;;;;;12.88;5.63;;;8.20;99.90;;;;;;4943123;28;20073;-66
2021/05/05 09:21:52;;;;;;;6.00;5.32;;;8.20;99.90;;;;;;4962495;28;20615;-66
2021/05/05 09:24:19;;;;;;;7.30;5.20;;;8.20;99.90;;;;;;4962671;28;20050;-65
2021/05/05 09:26:48;;;;;;;11.80;5.25;;;8.30;99.90;;;;;;4964519;28;20069;-64
2021/05/05 09:29:15;;;;;;;8.73;6.07;;;8.30;99.90;;;;;;4968152;28;20057;-67
2021/05/05 09:31:42;;;;;;;8.60;6.03;;;8.30;99.90;;;;;;4961172;28;20047;-64
2021/05/05 09:34:11;;;;;;;7.65;4.95;;;8.30;99.90;;;;;;4939635;28;20090;-65
2021/05/05 09:36:58;;;;;;;7.88;6.10;;;8.20;99.90;;;;;;4961979;28;20058;-66
2021/05/05 09:39:43;;;;;;;10.75;5.85;;;8.20;99.90;;;;;;4957953;28;20520;-65
2021/05/05 09:42:16;;;;;;;9.07;6.85;;;8.10;99.90;;;;;;4962304;28;20050;-67
2021/05/05 09:44:55;;;;;;;8.10;5.32;;;8.10;99.90;;;;;;4962076;28;20458;-65
2021/05/05 09:47:22;;;;;;;8.95;5.85;;;8.10;99.90;;;;;;4961237;28;20408;-66
2021/05/05 09:49:48;;;;;;;6.68;5.10;;;8.10;99.90;;;;;;4962428;28;20051;-65
2021/05/05 09:52:23;;;;;;;11.00;5.90;;;8.20;99.90;;;;;;4965809;28;20389;-66
2021/05/05 09:54:55;;;;;;;7.50;5.90;;;8.30;99.90;;;;;;4982500;28;20465;-67
2021/05/05 09:57:29;;;;;;;8.25;6.10;;;8.40;99.90;;;;;;4964096;28;20054;-67
2021/05/05 10:00:09;;;;;;;9.82;6.13;;;8.20;99.90;;;;;;4951012;28;20060;-65
2021/05/05 10:02:45;;;;;;;7.05;6.07;;;8.20;99.90;;;;;;4967502;28;20063;-65
2021/05/05 10:05:29;;;;;;;10.70;6.30;;;8.30;99.90;;;;;;4966870;28;20512;-65
2021/05/05 10:08:02;;;;;;;7.38;5.65;;;8.30;99.90;;;;;;4966162;28;20062;-66
2021/05/05 10:10:33;;;;;;;7.63;5.45;;;8.30;99.90;;;;;;4963954;28;20050;-64
2021/05/05 10:13:04;;;;;;;7.47;5.47;;;8.40;99.90;;;;;;4967081;28;20774;-65
2021/05/05 10:15:32;;;;;;;5.38;4.90;;;8.30;99.90;;;;;;4962395;28;20058;-65
2021/05/05 10:18:00;;;;;;;7.00;5.47;;;8.30;99.90;;;;;;4970791;28;20046;-66
2021/05/05 10:20:28;;;;;;;5.88;5.15;;;8.30;99.90;;;;;;4967537;28;20054;-66
2021/05/05 10:23:00;;;;;;;5.60;4.63;;;8.30;99.90;;;;;;4970233;28;20692;-66
2021/05/05 10:25:28;;;;;;;4.60;4.20;;;8.20;99.90;;;;;;4964682;28;20055;-66
2021/05/05 10:27:55;;;;;;;5.75;5.07;;;8.00;99.90;;;;;;4968578;28;20043;-65
2021/05/05 10:30:26;;;;;;;10.18;4.97;;;8.10;99.90;;;;;;4963431;28;20050;-66
2021/05/05 10:33:24;;;;;;;5.97;4.50;;;8.10;99.90;;;;;;4966407;28;20055;-66
2021/05/05 10:35:50;;;;;;;6.97;4.53;;;8.00;99.90;;;;;;4964706;28;20047;-66
2021/05/05 10:38:31;;;;;;;8.88;5.05;;;8.00;99.90;;;;;;4968526;28;20059;-66
2021/05/05 10:41:12;;;;;;;5.32;4.65;;;8.00;99.90;;;;;;4980962;28;20114;-64
2021/05/05 10:43:53;;;;;;;7.40;5.18;;;7.90;99.90;;;;;;4962723;28;20415;-64
2021/05/05 10:46:33;;;;;;;8.50;5.32;;;7.80;99.90;;;;;;4966554;28;20188;-65
2021/05/05 10:49:08;;;;;;;7.93;5.00;;;7.70;99.90;;;;;;4970182;28;20105;-65
2021/05/05 10:51:54;;;;;;;9.07;5.00;;;7.60;99.90;;;;;;4964172;28;20051;-65
2021/05/05 10:54:42;;;;;;;7.20;5.25;;;7.60;99.90;;;;;;4958569;28;20503;-65
2021/05/05 10:57:12;;;;;;;8.20;5.32;;;7.50;99.90;;;;;;4971265;28;20087;-64
2021/05/05 11:00:08;;;;;;;5.25;4.45;;;7.50;99.90;;;;;;4963561;28;20058;-66
2021/05/05 11:02:47;;;;;;;13.10;4.38;;;7.40;99.90;;;;;;4969461;28;20426;-66
2021/05/05 11:05:29;;;;;;;5.73;4.60;;;7.40;99.90;;;;;;4948569;28;20550;-65
2021/05/05 11:08:02;;;;;;;5.20;4.50;;;7.40;99.90;;;;;;4965636;28;20301;-66
2021/05/05 11:10:38;;;;;;;10.77;4.70;;;7.40;99.90;;;;;;4963345;28;20057;-65
2021/05/05 11:13:14;;;;;;;4.82;4.10;;;7.30;99.90;;;;;;4966341;28;20043;-65
2021/05/05 11:15:41;;;;;;;7.47;4.20;;;7.30;99.90;;;;;;4962807;28;20074;-67
2021/05/05 11:18:58;;;;;;;8.55;4.55;;;7.30;99.90;;;;;;4970328;28;20432;-66
2021/05/05 11:21:18;;;;;;;4.72;3.90;;;7.30;99.90;;;;;;4955490;28;20061;-64
2021/05/05 11:23:45;;;;;;;6.65;4.97;;;7.30;99.90;;;;;;4961263;28;20070;-66
2021/05/05 11:26:24;;;;;;;7.18;5.45;;;7.30;99.90;;;;;;4962945;28;20501;-64
2021/05/05 11:29:01;;;;;;;8.45;5.88;;;7.30;99.90;;;;;;4962900;28;20053;-64
2021/05/05 11:34:36;;;;;;;5.78;5.22;;;7.30;99.90;;;;;;4961885;28;20038;-65
2021/05/05 11:37:23;;;;;;;6.50;4.93;;;7.40;99.90;;;;;;4963133;28;20464;-64
2021/05/05 11:40:02;;;;;;;5.90;4.72;;;7.40;99.90;;;;;;4961550;28;20063;-64
2021/05/05 11:42:33;;;;;;;5.43;4.68;;;7.30;99.90;;;;;;4963602;28;20241;-65
2021/05/05 11:45:07;;;;;;;9.13;6.18;;;7.40;99.90;;;;;;4962959;28;20062;-64
2021/05/05 11:47:40;;;;;;;7.75;4.65;;;7.40;99.90;;;;;;4960509;28;20116;-64
2021/05/05 11:50:19;;;;;;;9.18;4.57;;;7.30;99.90;;;;;;4963712;28;20043;-63
2021/05/05 11:52:51;;;;;;;10.60;5.43;;;7.30;99.90;;;;;;4963303;28;20057;-66
2021/05/05 11:55:26;;;;;;;9.07;4.60;;;7.40;99.90;;;;;;4964093;28;20055;-64
2021/05/05 11:57:58;;;;;;;9.27;5.60;;;7.30;99.90;;;;;;4963817;28;20051;-65
2021/05/05 12:00:36;;;;;;;8.00;4.88;;;7.40;99.90;;;;;;4964684;28;20046;-65
2021/05/05 12:03:09;;;;;;;9.93;4.65;;;7.40;99.90;;;;;;4963986;28;20069;-64
2021/05/05 12:05:44;;;;;;;8.02;4.10;;;7.50;99.90;;;;;;4962167;28;20058;-64
2021/05/05 12:08:12;;;;;;;5.68;4.03;;;7.60;99.90;;;;;;4964455;28;20061;-65
2021/05/05 12:10:44;;;;;;;8.68;4.85;;;7.70;99.90;;;;;;4965154;28;20057;-64
2021/05/05 12:13:13;;;;;;;6.60;4.18;;;7.80;99.90;;;;;;4962332;28;20118;-65
2021/05/05 12:15:47;;;;;;;9.95;3.95;;;7.90;99.90;;;;;;4963631;28;20428;-64
2021/05/05 12:18:21;;;;;;;7.75;4.43;;;8.10;99.90;;;;;;4963651;28;20130;-64
2021/05/05 12:20:49;;;;;;;5.05;4.05;;;8.20;99.90;;;;;;4960150;28;20054;-66
2021/05/05 12:23:16;;;;;;;3.90;2.72;;;8.30;99.90;;;;;;4961907;28;20062;-63
2021/05/05 12:25:43;;;;;;;7.25;2.80;;;8.50;99.90;;;;;;4961012;28;20421;-65
2021/05/05 12:28:14;;;;;;;9.80;4.10;;;8.50;99.90;;;;;;4961153;28;20067;-66
2021/05/05 12:30:45;;;;;;;4.93;3.05;;;8.60;99.90;;;;;;4960524;28;20520;-65
2021/05/05 12:33:13;;;;;;;10.73;3.85;;;8.60;99.90;;;;;;4957782;28;20117;-65
2021/05/05 12:35:40;;;;;;;7.65;3.03;;;8.50;99.90;;;;;;4960043;28;20712;-64
2021/05/05 12:38:13;;;;;;;8.50;3.25;;;8.50;99.90;;;;;;4961334;28;20047;-64
2021/05/05 12:40:40;;;;;;;4.95;3.55;;;8.60;99.90;;;;;;4963294;28;20062;-64
2021/05/05 12:43:15;;;;;;;6.55;3.63;;;8.80;99.90;;;;;;4960341;28;20113;-64
2021/05/05 12:45:42;;;;;;;5.90;3.35;;;8.80;99.90;;;;;;4960007;28;20165;-65
2021/05/05 12:48:09;;;;;;;7.95;2.83;;;8.90;99.90;;;;;;4960892;28;20124;-65
2021/05/05 12:50:41;;;;;;;5.05;2.75;;;8.90;99.90;;;;;;4961968;28;20050;-64
2021/05/05 12:53:11;;;;;;;13.57;4.40;;;9.00;99.90;;;;;;4938092;28;20051;-63
2021/05/05 12:55:40;;;;;;;6.30;2.75;;;9.00;99.90;;;;;;4958722;28;20063;-65
2021/05/05 12:58:16;;;;;;;8.70;3.92;;;9.00;99.90;;;;;;4959299;28;20053;-64
2021/05/05 13:00:45;;;;;;;5.38;3.13;;;9.10;99.90;;;;;;4961160;28;20058;-63
2021/05/05 13:03:14;;;;;;;6.07;3.47;;;9.20;99.90;;;;;;4962033;28;20102;-63
2021/05/05 13:06:04;;;;;;;7.43;4.40;;;9.40;99.90;;;;;;4957616;28;20129;-65
2021/05/05 13:08:32;;;;;;;;;;;9.70;99.90;;;;;;4960372;28;20043;-64
2021/05/05 13:11:01;;;;;;;5.38;2.60;;;9.70;99.90;;;;;;4959473;28;19925;-64
2021/05/05 13:13:50;;;;;;;5.00;2.78;;;9.60;99.90;;;;;;4959782;28;20070;-63
2021/05/05 13:33:02;;;;;;;3.00;2.30;;;10.20;99.90;;;;;;4960946;28;20551;-64
2021/05/05 13:35:38;;;;;;;8.60;2.42;;;10.40;99.90;;;;;;4958044;28;20054;-63
2021/05/05 13:38:13;;;;;;;8.38;2.75;;;10.60;99.90;;;;;;4964414;28;20074;-65